Wetterdaten: Woche 05.06.17 - 11.06.17 (KW23)
Datum Zeit Temp. I. Temp. A. Feuchte I. Feuchte A. Luftdruck Regen Wind Richtung Sonnenschein UV Solar Taupunkt Windchill Windben
05.06.2017 00:00 25,5 C 10,6 C 52 % 95 % 1015,5 hPa 0,0 l/m 0,0 km/h (0 Bft) N 0,00 h 0,0 UV-I 0 W/m 9,8 C 10,6 C 0,0 km/h (0 Bft)
05.06.2017 01:00 25,3 C 9,8 C 52 % 95 % 1015,4 hPa 0,0 l/m 0,0 km/h (0 Bft) N 0,00 h 0,0 UV-I 0 W/m 9,1 C 9,8 C 0,0 km/h (0 Bft)
05.06.2017 02:00 25,2 C 9,2 C 53 % 96 % 1015,4 hPa 0,0 l/m 0,0 km/h (0 Bft) N 0,00 h 0,0 UV-I 0 W/m 8,5 C 9,2 C 0,0 km/h (0 Bft)
05.06.2017 03:00 25,2 C 8,4 C 53 % 96 % 1015,4 hPa 0,0 l/m 0,0 km/h (0 Bft) N 0,00 h 0,0 UV-I 0 W/m 7,8 C 8,4 C 0,0 km/h (0 Bft)
05.06.2017 04:00 25,1 C 7,9 C 51 % 96 % 1015,2 hPa 0,0 l/m 0,0 km/h (0 Bft) N 0,00 h 0,0 UV-I 5 W/m 7,3 C 7,9 C 0,0 km/h (0 Bft)
05.06.2017 05:00 25,0 C 7,9 C 50 % 96 % 1015,6 hPa 0,0 l/m 0,0 km/h (0 Bft) N 0,00 h 0,0 UV-I 19 W/m 7,4 C 7,9 C 0,0 km/h (0 Bft)
05.06.2017 06:00 24,9 C 8,5 C 50 % 97 % 1015,7 hPa 0,0 l/m 0,0 km/h (0 Bft) N 0,00 h 0,0 UV-I 55 W/m 8,0 C 8,5 C 0,0 km/h (0 Bft)
05.06.2017 07:00 25,1 C 10,2 C 51 % 97 % 1015,7 hPa 0,0 l/m 0,0 km/h (0 Bft) N 0,55 h 0,7 UV-I 161 W/m 9,8 C 10,2 C 0,0 km/h (0 Bft)
05.06.2017 08:00 25,2 C 13,4 C 51 % 92 % 1015,6 hPa 0,0 l/m 0,0 km/h (0 Bft) N 1,00 h 1,6 UV-I 355 W/m 12,1 C 13,4 C 0,1 km/h (0 Bft)
05.06.2017 09:00 25,5 C 16,0 C 52 % 81 % 1015,5 hPa 0,0 l/m 0,0 km/h (0 Bft) W-SW 1,00 h 2,6 UV-I 464 W/m 12,8 C 16,0 C 0,2 km/h (0 Bft)
05.06.2017 10:00 25,6 C 18,1 C 52 % 71 % 1015,1 hPa 0,0 l/m 0,3 km/h (0 Bft) SO 1,00 h 3,4 UV-I 515 W/m 12,7 C 18,1 C 1,1 km/h (1 Bft)
05.06.2017 11:00 25,5 C 18,5 C 51 % 67 % 1014,6 hPa 0,0 l/m 1,6 km/h (1 Bft) O-NO 1,00 h 3,3 UV-I 400 W/m 12,2 C 18,5 C 4,5 km/h (1 Bft)
05.06.2017 12:00 25,3 C 19,3 C 49 % 63 % 1014,2 hPa 0,0 l/m 2,0 km/h (1 Bft) O-SO 1,00 h 4,9 UV-I 570 W/m 12,1 C 19,3 C 5,4 km/h (1 Bft)
05.06.2017 13:00 25,2 C 20,0 C 48 % 58 % 1013,5 hPa 0,0 l/m 2,2 km/h (1 Bft) O-SO 1,00 h 4,5 UV-I 535 W/m 11,5 C 20,0 C 5,9 km/h (2 Bft)
05.06.2017 14:00 25,1 C 20,9 C 47 % 52 % 1012,8 hPa 0,0 l/m 2,6 km/h (1 Bft) O-NO 1,00 h 4,8 UV-I 532 W/m 10,8 C 20,9 C 6,7 km/h (2 Bft)
05.06.2017 15:00 25,0 C 19,8 C 46 % 57 % 1012,2 hPa 0,0 l/m 4,6 km/h (1 Bft) SO 0,68 h 1,9 UV-I 252 W/m 11,1 C 19,6 C 9,7 km/h (2 Bft)
05.06.2017 16:00 24,8 C 20,0 C 45 % 54 % 1011,9 hPa 0,0 l/m 3,6 km/h (1 Bft) SO 1,00 h 2,1 UV-I 286 W/m 10,4 C 19,9 C 7,9 km/h (2 Bft)
05.06.2017 17:00 25,2 C 19,8 C 45 % 52 % 1011,5 hPa 0,0 l/m 1,2 km/h (1 Bft) O 0,22 h 0,8 UV-I 127 W/m 9,8 C 19,8 C 3,4 km/h (1 Bft)
05.06.2017 18:00 25,3 C 18,2 C 46 % 68 % 1011,4 hPa 0,0 l/m 5,2 km/h (1 Bft) N 0,00 h 0,6 UV-I 84 W/m 12,1 C 17,6 C 10,0 km/h (2 Bft)
05.06.2017 19:00 25,3 C 16,5 C 48 % 80 % 1011,4 hPa 0,0 l/m 4,7 km/h (1 Bft) N-NW 0,00 h 0,5 UV-I 53 W/m 13,0 C 16,0 C 9,5 km/h (2 Bft)
05.06.2017 20:00 25,3 C 15,5 C 49 % 85 % 1011,2 hPa 0,0 l/m 0,2 km/h (0 Bft) N 0,00 h 0,0 UV-I 14 W/m 13,0 C 15,5 C 1,0 km/h (0 Bft)
05.06.2017 21:00 25,4 C 14,8 C 50 % 88 % 1011,1 hPa 0,0 l/m 0,3 km/h (0 Bft) N-NW 0,00 h 0,0 UV-I 5 W/m 12,7 C 14,8 C 1,1 km/h (1 Bft)
05.06.2017 22:00 25,6 C 14,5 C 51 % 88 % 1010,8 hPa 0,0 l/m 0,1 km/h (0 Bft) N 0,00 h 0,0 UV-I 0 W/m 12,5 C 14,5 C 0,4 km/h (0 Bft)
05.06.2017 23:00 25,4 C 14,4 C 51 % 89 % 1010,4 hPa 0,0 l/m 0,0 km/h (0 Bft) N 0,00 h 0,0 UV-I 0 W/m 12,6 C 14,4 C 0,0 km/h (0 Bft)
06.06.2017 00:00 25,2 C 14,2 C 51 % 90 % 1009,8 hPa 0,0 l/m 0,0 km/h (0 Bft) N 0,00 h 0,0 UV-I 0 W/m 12,6 C 14,2 C 0,0 km/h (0 Bft)
06.06.2017 01:00 25,1 C 13,9 C 51 % 92 % 1009,0 hPa 0,0 l/m 0,0 km/h (0 Bft) N 0,00 h 0,0 UV-I 0 W/m 12,5 C 13,9 C 0,0 km/h (0 Bft)
06.06.2017 02:00 25,0 C 13,4 C 52 % 93 % 1008,1 hPa 0,0 l/m 0,0 km/h (0 Bft) N 0,00 h 0,0 UV-I 0 W/m 12,2 C 13,4 C 0,0 km/h (0 Bft)
06.06.2017 03:00 24,9 C 12,6 C 52 % 94 % 1007,1 hPa 0,0 l/m 0,0 km/h (0 Bft) N 0,00 h 0,0 UV-I 0 W/m 11,7 C 12,6 C 0,0 km/h (0 Bft)
06.06.2017 04:00 24,8 C 11,6 C 51 % 95 % 1006,6 hPa 0,0 l/m 0,0 km/h (0 Bft) N 0,00 h 0,0 UV-I 0 W/m 10,9 C 11,6 C 0,0 km/h (0 Bft)
06.06.2017 05:00 24,8 C 10,8 C 51 % 96 % 1006,1 hPa 0,0 l/m 0,0 km/h (0 Bft) N 0,00 h 0,0 UV-I 10 W/m 10,2 C 10,8 C 0,0 km/h (0 Bft)
06.06.2017 06:00 24,7 C 10,7 C 51 % 97 % 1005,8 hPa 0,0 l/m 0,0 km/h (0 Bft) N 0,00 h 0,0 UV-I 26 W/m 10,2 C 10,7 C 0,0 km/h (0 Bft)
06.06.2017 07:00 24,9 C 13,2 C 51 % 94 % 1005,3 hPa 0,0 l/m 0,0 km/h (0 Bft) N 0,43 h 1,0 UV-I 186 W/m 12,2 C 13,2 C 0,0 km/h (0 Bft)
06.06.2017 08:00 25,1 C 16,9 C 51 % 81 % 1005,1 hPa 0,0 l/m 1,4 km/h (1 Bft) S 1,00 h 1,8 UV-I 477 W/m 13,7 C 16,9 C 1,6 km/h (1 Bft)
06.06.2017 09:00 25,0 C 18,5 C 51 % 75 % 1004,7 hPa 0,0 l/m 3,2 km/h (1 Bft) S 1,00 h 2,4 UV-I 496 W/m 13,9 C 18,3 C 4,6 km/h (1 Bft)
06.06.2017 10:00 24,8 C 19,7 C 51 % 71 % 1004,4 hPa 0,0 l/m 5,6 km/h (1 Bft) N 1,00 h 4,1 UV-I 600 W/m 14,2 C 19,4 C 5,1 km/h (1 Bft)
06.06.2017 11:00 24,6 C 19,4 C 51 % 70 % 1004,3 hPa 0,0 l/m 7,2 km/h (2 Bft) S 1,00 h 3,0 UV-I 376 W/m 13,7 C 18,7 C 12,1 km/h (2 Bft)
06.06.2017 12:00 24,9 C 18,1 C 51 % 77 % 1004,5 hPa 0,2 l/m 7,9 km/h (2 Bft) S 0,35 h 1,7 UV-I 141 W/m 14,0 C 17,1 C 12,4 km/h (3 Bft)
06.06.2017 13:00 25,1 C 15,5 C 51 % 91 % 1005,0 hPa 1,0 l/m 5,4 km/h (1 Bft) S 0,22 h 1,2 UV-I 127 W/m 14,1 C 15,1 C 9,2 km/h (2 Bft)
06.06.2017 14:00 25,1 C 15,1 C 51 % 91 % 1004,5 hPa 0,4 l/m 6,6 km/h (2 Bft) S-SO 0,35 h 1,3 UV-I 146 W/m 13,6 C 14,3 C 11,5 km/h (2 Bft)
06.06.2017 15:00 25,3 C 15,4 C 51 % 88 % 1003,8 hPa 0,2 l/m 4,6 km/h (1 Bft) N 0,80 h 1,6 UV-I 228 W/m 13,3 C 15,2 C 3,1 km/h (1 Bft)
06.06.2017 16:00 25,3 C 16,0 C 51 % 82 % 1004,3 hPa 0,0 l/m 5,2 km/h (1 Bft) N 0,92 h 1,4 UV-I 210 W/m 12,9 C 15,9 C 1,1 km/h (1 Bft)
06.06.2017 17:00 25,4 C 15,0 C 51 % 87 % 1004,4 hPa 0,2 l/m 0,6 km/h (0 Bft) N 0,00 h 0,6 UV-I 90 W/m 12,9 C 15,0 C 0,4 km/h (0 Bft)
06.06.2017 18:00 25,3 C 14,1 C 52 % 91 % 1005,1 hPa 0,4 l/m 0,0 km/h (0 Bft) N 0,00 h 0,6 UV-I 60 W/m 12,7 C 14,1 C 0,0 km/h (0 Bft)
06.06.2017 19:00 25,3 C 12,6 C 52 % 87 % 1005,9 hPa 0,2 l/m 0,0 km/h (0 Bft) N 0,00 h 0,0 UV-I 33 W/m 10,4 C 12,6 C 0,0 km/h (0 Bft)
06.06.2017 20:00 25,3 C 11,9 C 52 % 88 % 1006,5 hPa 0,0 l/m 0,0 km/h (0 Bft) N 0,00 h 0,0 UV-I 18 W/m 9,9 C 11,9 C 0,0 km/h (0 Bft)
06.06.2017 21:00 25,3 C 11,5 C 52 % 90 % 1007,6 hPa 0,0 l/m 0,0 km/h (0 Bft) N 0,00 h 0,0 UV-I 5 W/m 9,9 C 11,5 C 0,0 km/h (0 Bft)
06.06.2017 22:00 25,4 C 11,3 C 52 % 91 % 1008,4 hPa 0,0 l/m 0,5 km/h (0 Bft) S-SW 0,00 h 0,0 UV-I 0 W/m 9,8 C 11,3 C 0,8 km/h (0 Bft)
06.06.2017 23:00 25,4 C 11,0 C 52 % 90 % 1009,1 hPa 0,0 l/m 0,0 km/h (0 Bft) N 0,00 h 0,0 UV-I 0 W/m 9,5 C 11,0 C 0,0 km/h (0 Bft)
07.06.2017 00:00 25,4 C 10,2 C 52 % 91 % 1009,7 hPa 0,0 l/m 0,2 km/h (0 Bft) S 0,00 h 0,0 UV-I 0 W/m 8,8 C 10,2 C 0,8 km/h (0 Bft)
07.06.2017 01:00 25,2 C 9,4 C 52 % 88 % 1010,1 hPa 0,0 l/m 0,3 km/h (0 Bft) N 0,00 h 0,0 UV-I 0 W/m 7,5 C 9,4 C 0,0 km/h (0 Bft)
07.06.2017 02:00 25,2 C 8,5 C 51 % 90 % 1010,4 hPa 0,0 l/m 1,4 km/h (1 Bft) N 0,00 h 0,0 UV-I 0 W/m 6,9 C 8,5 C 0,1 km/h (0 Bft)
07.06.2017 03:00 24,8 C 7,9 C 51 % 90 % 1010,9 hPa 0,0 l/m 3,2 km/h (1 Bft) N 0,00 h 0,0 UV-I 0 W/m 6,4 C 7,9 C 0,0 km/h (0 Bft)
07.06.2017 04:00 24,8 C 7,8 C 51 % 90 % 1011,4 hPa 0,0 l/m 0,5 km/h (0 Bft) N 0,00 h 0,0 UV-I 0 W/m 6,3 C 7,8 C 0,3 km/h (0 Bft)
07.06.2017 05:00 24,6 C 7,8 C 51 % 90 % 1011,8 hPa 0,0 l/m 0,0 km/h (0 Bft) N 0,00 h 0,0 UV-I 11 W/m 6,3 C 7,8 C 0,0 km/h (0 Bft)
07.06.2017 06:00 24,6 C 8,1 C 51 % 89 % 1012,3 hPa 0,0 l/m 2,5 km/h (1 Bft) W-SW 0,00 h 0,5 UV-I 35 W/m 6,5 C 7,8 C 4,7 km/h (1 Bft)
07.06.2017 07:00 24,7 C 9,3 C 52 % 84 % 1013,0 hPa 0,0 l/m 5,2 km/h (1 Bft) SW 0,37 h 0,8 UV-I 176 W/m 6,8 C 8,8 C 7,1 km/h (2 Bft)
07.06.2017 08:00 24,7 C 10,5 C 52 % 78 % 1013,7 hPa 0,0 l/m 7,6 km/h (2 Bft) SW 0,60 h 1,3 UV-I 212 W/m 6,8 C 9,2 C 15,8 km/h (3 Bft)
07.06.2017 09:00 25,0 C 11,3 C 52 % 74 % 1014,2 hPa 0,0 l/m 8,3 km/h (2 Bft) W-SW 0,68 h 1,9 UV-I 286 W/m 6,9 C 9,7 C 16,4 km/h (3 Bft)
07.06.2017 10:00 25,1 C 12,6 C 51 % 69 % 1014,3 hPa 0,0 l/m 8,1 km/h (2 Bft) SW 0,80 h 3,0 UV-I 564 W/m 7,1 C 11,0 C 14,5 km/h (3 Bft)
07.06.2017 11:00 24,9 C 11,6 C 49 % 77 % 1014,8 hPa 0,2 l/m 10,4 km/h (2 Bft) W-SW 0,85 h 2,9 UV-I 413 W/m 7,7 C 9,2 C 15,0 km/h (3 Bft)
07.06.2017 12:00 25,0 C 12,3 C 50 % 77 % 1015,2 hPa 0,0 l/m 12,1 km/h (2 Bft) S 1,00 h 4,0 UV-I 635 W/m 8,4 C 9,1 C 19,4 km/h (3 Bft)
07.06.2017 13:00 25,0 C 13,5 C 50 % 71 % 1015,2 hPa 0,2 l/m 10,9 km/h (2 Bft) S 0,87 h 3,7 UV-I 610 W/m 8,3 C 11,0 C 18,4 km/h (3 Bft)
07.06.2017 14:00 25,0 C 13,6 C 50 % 65 % 1015,8 hPa 0,0 l/m 10,7 km/h (2 Bft) SW 1,00 h 4,8 UV-I 822 W/m 7,0 C 11,3 C 18,9 km/h (3 Bft)
07.06.2017 15:00 25,0 C 14,4 C 50 % 64 % 1016,0 hPa 0,0 l/m 6,7 km/h (2 Bft) S 1,00 h 3,4 UV-I 493 W/m 7,6 C 13,3 C 13,0 km/h (3 Bft)
07.06.2017 16:00 24,9 C 14,9 C 50 % 58 % 1016,4 hPa 0,2 l/m 11,1 km/h (2 Bft) W-SW 0,78 h 1,9 UV-I 289 W/m 6,6 C 12,6 C 19,4 km/h (3 Bft)
07.06.2017 17:00 25,0 C 13,6 C 50 % 71 % 1016,8 hPa 0,2 l/m 3,4 km/h (1 Bft) W-SW 0,70 h 1,6 UV-I 323 W/m 8,4 C 13,3 C 7,7 km/h (2 Bft)
07.06.2017 18:00 25,0 C 14,5 C 50 % 60 % 1017,2 hPa 0,0 l/m 5,1 km/h (1 Bft) W-SW 0,07 h 0,9 UV-I 97 W/m 6,8 C 13,9 C 10,3 km/h (2 Bft)
07.06.2017 19:00 25,0 C 11,5 C 51 % 75 % 1018,1 hPa 0,2 l/m 6,3 km/h (2 Bft) W-SW 0,00 h 0,0 UV-I 51 W/m 7,2 C 10,2 C 11,2 km/h (2 Bft)
07.06.2017 20:00 24,9 C 11,6 C 50 % 77 % 1018,4 hPa 0,0 l/m 1,0 km/h (0 Bft) W-SW 0,00 h 0,0 UV-I 16 W/m 7,7 C 11,6 C 3,1 km/h (1 Bft)
07.06.2017 21:00 24,9 C 10,3 C 51 % 82 % 1019,3 hPa 0,0 l/m 0,5 km/h (0 Bft) W 0,00 h 0,0 UV-I 5 W/m 7,4 C 10,3 C 1,1 km/h (1 Bft)
07.06.2017 22:00 24,9 C 9,9 C 51 % 89 % 1020,3 hPa 0,0 l/m 0,3 km/h (0 Bft) W-SW 0,00 h 0,0 UV-I 0 W/m 8,1 C 9,9 C 1,0 km/h (0 Bft)
07.06.2017 23:00 25,0 C 8,9 C 52 % 93 % 1020,6 hPa 0,0 l/m 0,0 km/h (0 Bft) N 0,00 h 0,0 UV-I 0 W/m 7,7 C 8,9 C 0,0 km/h (0 Bft)
08.06.2017 00:00 24,8 C 8,6 C 51 % 94 % 1021,0 hPa 0,0 l/m 0,0 km/h (0 Bft) N 0,00 h 0,0 UV-I 0 W/m 7,6 C 8,6 C 0,1 km/h (0 Bft)
08.06.2017 01:00 24,6 C 8,5 C 52 % 91 % 1021,0 hPa 0,0 l/m 0,0 km/h (0 Bft) N 0,00 h 0,0 UV-I 0 W/m 7,2 C 8,5 C 0,1 km/h (0 Bft)
08.06.2017 02:00 24,5 C 8,0 C 52 % 92 % 1021,2 hPa 0,0 l/m 0,0 km/h (0 Bft) N 0,00 h 0,0 UV-I 0 W/m 6,8 C 8,0 C 0,0 km/h (0 Bft)
08.06.2017 03:00 24,4 C 7,7 C 52 % 92 % 1021,3 hPa 0,0 l/m 0,0 km/h (0 Bft) N 0,00 h 0,0 UV-I 0 W/m 6,4 C 7,7 C 0,0 km/h (0 Bft)
08.06.2017 04:00 24,4 C 6,8 C 52 % 93 % 1021,3 hPa 0,0 l/m 0,0 km/h (0 Bft) N 0,00 h 0,0 UV-I 0 W/m 5,8 C 6,8 C 0,0 km/h (0 Bft)
08.06.2017 05:00 24,3 C 5,8 C 52 % 95 % 1021,7 hPa 0,0 l/m 0,0 km/h (0 Bft) N 0,00 h 0,0 UV-I 9 W/m 5,0 C 5,8 C 0,0 km/h (0 Bft)
08.06.2017 06:00 24,3 C 6,6 C 52 % 95 % 1021,8 hPa 0,0 l/m 0,0 km/h (0 Bft) N 0,00 h 0,0 UV-I 29 W/m 5,8 C 6,6 C 0,0 km/h (0 Bft)
08.06.2017 07:00 24,5 C 10,1 C 53 % 85 % 1021,9 hPa 0,0 l/m 1,5 km/h (1 Bft) S-SW 0,63 h 0,9 UV-I 244 W/m 7,7 C 10,1 C 3,5 km/h (1 Bft)
08.06.2017 08:00 24,6 C 12,5 C 52 % 75 % 1021,7 hPa 0,0 l/m 4,8 km/h (1 Bft) W-SW 1,00 h 1,8 UV-I 463 W/m 8,3 C 12,1 C 5,5 km/h (1 Bft)
08.06.2017 09:00 24,5 C 14,3 C 49 % 70 % 1021,5 hPa 0,0 l/m 3,3 km/h (1 Bft) S 1,00 h 2,7 UV-I 531 W/m 8,9 C 14,3 C 7,0 km/h (2 Bft)
08.06.2017 10:00 24,1 C 15,9 C 46 % 63 % 1021,2 hPa 0,0 l/m 5,0 km/h (1 Bft) S 1,00 h 4,3 UV-I 714 W/m 8,8 C 15,6 C 9,4 km/h (2 Bft)
08.06.2017 11:00 24,4 C 16,8 C 45 % 56 % 1020,9 hPa 0,0 l/m 5,8 km/h (2 Bft) S 1,00 h 5,0 UV-I 664 W/m 7,9 C 16,4 C 12,2 km/h (2 Bft)
08.06.2017 12:00 24,3 C 17,7 C 43 % 54 % 1020,5 hPa 0,0 l/m 5,1 km/h (1 Bft) S 1,00 h 5,6 UV-I 747 W/m 8,3 C 17,5 C 10,5 km/h (2 Bft)
08.06.2017 13:00 24,5 C 18,0 C 44 % 55 % 1020,3 hPa 0,0 l/m 5,2 km/h (1 Bft) S 1,00 h 5,3 UV-I 649 W/m 8,7 C 17,7 C 9,9 km/h (2 Bft)
08.06.2017 14:00 24,6 C 18,7 C 45 % 53 % 1019,7 hPa 0,0 l/m 4,8 km/h (1 Bft) S 1,00 h 5,9 UV-I 794 W/m 8,8 C 18,4 C 8,9 km/h (2 Bft)
08.06.2017 15:00 24,6 C 19,5 C 46 % 48 % 1019,2 hPa 0,0 l/m 3,4 km/h (1 Bft) S 1,00 h 4,9 UV-I 724 W/m 8,1 C 19,4 C 6,1 km/h (2 Bft)
08.06.2017 16:00 24,7 C 19,8 C 46 % 46 % 1018,7 hPa 0,0 l/m 4,1 km/h (1 Bft) S 1,00 h 3,7 UV-I 639 W/m 7,9 C 19,6 C 7,5 km/h (2 Bft)
08.06.2017 17:00 24,7 C 20,0 C 47 % 45 % 1018,2 hPa 0,0 l/m 3,4 km/h (1 Bft) S 0,85 h 2,2 UV-I 419 W/m 7,6 C 19,9 C 6,9 km/h (2 Bft)
08.06.2017 18:00 24,8 C 19,3 C 46 % 46 % 1017,8 hPa 0,0 l/m 2,8 km/h (1 Bft) S 0,00 h 0,9 UV-I 104 W/m 7,4 C 19,3 C 5,5 km/h (1 Bft)
08.06.2017 19:00 24,6 C 18,9 C 44 % 45 % 1017,7 hPa 0,0 l/m 0,2 km/h (0 Bft) S-SW 0,00 h 0,6 UV-I 88 W/m 6,6 C 18,9 C 0,7 km/h (0 Bft)
08.06.2017 20:00 24,6 C 17,9 C 45 % 53 % 1017,6 hPa 0,0 l/m 0,0 km/h (0 Bft) N 0,00 h 0,0 UV-I 31 W/m 8,2 C 17,9 C 0,0 km/h (0 Bft)
08.06.2017 21:00 24,6 C 15,8 C 46 % 66 % 1017,7 hPa 0,0 l/m 0,0 km/h (0 Bft) N 0,00 h 0,0 UV-I 6 W/m 9,5 C 15,8 C 0,0 km/h (0 Bft)
08.06.2017 22:00 24,6 C 14,2 C 47 % 73 % 1017,7 hPa 0,0 l/m 0,0 km/h (0 Bft) N 0,00 h 0,0 UV-I 0 W/m 9,5 C 14,2 C 0,0 km/h (0 Bft)
08.06.2017 23:00 24,8 C 12,3 C 49 % 81 % 1017,6 hPa 0,0 l/m 0,0 km/h (0 Bft) N 0,00 h 0,0 UV-I 0 W/m 9,2 C 12,3 C 0,0 km/h (0 Bft)
09.06.2017 00:00 24,7 C 11,0 C 49 % 86 % 1017,5 hPa 0,0 l/m 0,0 km/h (0 Bft) N 0,00 h 0,0 UV-I 0 W/m 8,8 C 11,0 C 0,0 km/h (0 Bft)
09.06.2017 01:00 24,5 C 10,0 C 49 % 90 % 1017,2 hPa 0,0 l/m 0,0 km/h (0 Bft) N 0,00 h 0,0 UV-I 0 W/m 8,4 C 10,0 C 0,0 km/h (0 Bft)
09.06.2017 02:00 24,4 C 9,2 C 49 % 91 % 1016,7 hPa 0,0 l/m 0,0 km/h (0 Bft) N 0,00 h 0,0 UV-I 0 W/m 7,8 C 9,2 C 0,0 km/h (0 Bft)
09.06.2017 03:00 24,3 C 8,6 C 50 % 92 % 1016,1 hPa 0,0 l/m 0,0 km/h (0 Bft) N 0,00 h 0,0 UV-I 0 W/m 7,4 C 8,6 C 0,0 km/h (0 Bft)
09.06.2017 04:00 24,4 C 8,0 C 50 % 93 % 1015,9 hPa 0,0 l/m 0,0 km/h (0 Bft) N 0,00 h 0,0 UV-I 0 W/m 7,0 C 8,0 C 0,0 km/h (0 Bft)
09.06.2017 05:00 24,2 C 7,7 C 50 % 94 % 1015,8 hPa 0,0 l/m 0,0 km/h (0 Bft) N 0,00 h 0,0 UV-I 9 W/m 6,8 C 7,7 C 0,0 km/h (0 Bft)
09.06.2017 06:00 24,2 C 8,5 C 51 % 93 % 1015,5 hPa 0,0 l/m 0,0 km/h (0 Bft) N 0,00 h 0,0 UV-I 24 W/m 7,4 C 8,5 C 0,0 km/h (0 Bft)
09.06.2017 07:00 24,3 C 11,9 C 51 % 87 % 1015,0 hPa 0,0 l/m 0,0 km/h (0 Bft) N 0,65 h 1,0 UV-I 211 W/m 9,8 C 11,9 C 0,0 km/h (0 Bft)
09.06.2017 08:00 24,5 C 16,8 C 51 % 68 % 1014,7 hPa 0,0 l/m 0,6 km/h (0 Bft) O-SO 1,00 h 1,8 UV-I 456 W/m 10,8 C 16,8 C 1,4 km/h (1 Bft)
09.06.2017 09:00 24,6 C 20,0 C 50 % 51 % 1014,4 hPa 0,0 l/m 1,9 km/h (1 Bft) O-SO 1,00 h 2,9 UV-I 645 W/m 9,7 C 20,0 C 4,8 km/h (1 Bft)
09.06.2017 10:00 24,5 C 22,1 C 46 % 45 % 1013,7 hPa 0,0 l/m 2,4 km/h (1 Bft) SO 1,00 h 4,6 UV-I 769 W/m 9,5 C 22,1 C 5,9 km/h (2 Bft)
09.06.2017 11:00 24,5 C 23,8 C 42 % 42 % 1013,3 hPa 0,0 l/m 3,0 km/h (1 Bft) SO 1,00 h 5,7 UV-I 824 W/m 10,0 C 23,7 C 6,6 km/h (2 Bft)
09.06.2017 12:00 24,8 C 25,3 C 42 % 38 % 1012,9 hPa 0,0 l/m 6,3 km/h (2 Bft) SO 1,00 h 6,7 UV-I 904 W/m 9,9 C 24,9 C 8,4 km/h (2 Bft)
09.06.2017 13:00 24,9 C 25,3 C 44 % 35 % 1012,5 hPa 0,0 l/m 7,2 km/h (2 Bft) S 1,00 h 5,4 UV-I 707 W/m 8,7 C 24,9 C 8,7 km/h (2 Bft)
09.06.2017 14:00 24,8 C 25,2 C 44 % 39 % 1012,4 hPa 0,0 l/m 7,2 km/h (2 Bft) S 1,00 h 4,7 UV-I 618 W/m 10,1 C 24,8 C 8,5 km/h (2 Bft)
09.06.2017 15:00 25,0 C 24,9 C 45 % 41 % 1012,4 hPa 0,0 l/m 7,6 km/h (2 Bft) N 1,00 h 3,5 UV-I 501 W/m 10,8 C 24,4 C 7,2 km/h (2 Bft)
09.06.2017 16:00 25,0 C 24,4 C 45 % 40 % 1012,6 hPa 0,0 l/m 5,3 km/h (1 Bft) SW 1,00 h 1,8 UV-I 262 W/m 9,8 C 24,1 C 6,7 km/h (2 Bft)
09.06.2017 17:00 24,9 C 22,7 C 46 % 51 % 1013,1 hPa 0,0 l/m 9,9 km/h (2 Bft) W-SW 0,67 h 1,0 UV-I 161 W/m 11,9 C 21,7 C 17,9 km/h (3 Bft)
09.06.2017 18:00 24,7 C 20,9 C 46 % 60 % 1013,4 hPa 0,0 l/m 5,7 km/h (1 Bft) W 0,00 h 0,6 UV-I 84 W/m 12,7 C 20,6 C 10,8 km/h (2 Bft)
09.06.2017 19:00 24,7 C 19,2 C 48 % 71 % 1014,0 hPa 0,0 l/m 1,5 km/h (1 Bft) W-SW 0,00 h 0,0 UV-I 32 W/m 13,9 C 19,2 C 3,9 km/h (1 Bft)
09.06.2017 20:00 24,8 C 18,0 C 48 % 79 % 1014,4 hPa 0,0 l/m 2,0 km/h (1 Bft) W-SW 0,00 h 0,0 UV-I 24 W/m 14,2 C 18,0 C 4,6 km/h (1 Bft)
09.06.2017 21:00 24,7 C 17,1 C 49 % 75 % 1014,9 hPa 0,0 l/m 1,3 km/h (1 Bft) W 0,00 h 0,0 UV-I 8 W/m 12,6 C 17,1 C 3,2 km/h (1 Bft)
09.06.2017 22:00 24,7 C 16,6 C 49 % 76 % 1015,2 hPa 0,0 l/m 0,0 km/h (0 Bft) N 0,00 h 0,0 UV-I 0 W/m 12,4 C 16,6 C 0,0 km/h (0 Bft)
09.06.2017 23:00 24,7 C 14,8 C 50 % 83 % 1016,4 hPa 1,8 l/m 5,2 km/h (1 Bft) NW 0,00 h 0,0 UV-I 0 W/m 11,9 C 13,7 C 8,2 km/h (2 Bft)
10.06.2017 00:00 24,6 C 12,0 C 50 % 93 % 1016,2 hPa 0,8 l/m 0,1 km/h (0 Bft) O-NO 0,00 h 0,0 UV-I 0 W/m 10,9 C 12,0 C 0,5 km/h (0 Bft)
10.06.2017 01:00 24,5 C 11,8 C 50 % 94 % 1016,1 hPa 0,0 l/m 0,0 km/h (0 Bft) N 0,00 h 0,0 UV-I 0 W/m 10,8 C 11,8 C 0,0 km/h (0 Bft)
10.06.2017 02:00 24,4 C 11,5 C 50 % 95 % 1016,6 hPa 0,0 l/m 0,0 km/h (0 Bft) N 0,00 h 0,0 UV-I 0 W/m 10,7 C 11,5 C 0,0 km/h (0 Bft)
10.06.2017 03:00 24,4 C 10,7 C 50 % 96 % 1017,4 hPa 0,0 l/m 0,0 km/h (0 Bft) N 0,00 h 0,0 UV-I 0 W/m 10,0 C 10,7 C 0,0 km/h (0 Bft)
10.06.2017 04:00 24,3 C 9,8 C 51 % 96 % 1017,7 hPa 0,0 l/m 0,0 km/h (0 Bft) N 0,00 h 0,0 UV-I 0 W/m 9,2 C 9,8 C 0,0 km/h (0 Bft)
10.06.2017 05:00 24,3 C 9,2 C 51 % 97 % 1018,1 hPa 0,0 l/m 0,0 km/h (0 Bft) N 0,00 h 0,0 UV-I 15 W/m 8,7 C 9,2 C 0,0 km/h (0 Bft)
10.06.2017 06:00 24,3 C 9,8 C 51 % 97 % 1018,8 hPa 0,0 l/m 0,0 km/h (0 Bft) N 0,00 h 0,0 UV-I 46 W/m 9,3 C 9,8 C 0,0 km/h (0 Bft)
10.06.2017 07:00 24,4 C 10,4 C 51 % 98 % 1019,4 hPa 0,0 l/m 0,0 km/h (0 Bft) SO 0,00 h 0,6 UV-I 101 W/m 10,1 C 10,4 C 0,2 km/h (0 Bft)
10.06.2017 08:00 24,6 C 12,3 C 51 % 96 % 1019,9 hPa 0,0 l/m 0,0 km/h (0 Bft) S-SO 0,87 h 1,6 UV-I 389 W/m 11,8 C 12,3 C 0,1 km/h (0 Bft)
10.06.2017 09:00 24,6 C 14,7 C 51 % 87 % 1020,3 hPa 0,0 l/m 0,5 km/h (0 Bft) W-SW 0,63 h 2,4 UV-I 370 W/m 12,4 C 14,7 C 1,1 km/h (1 Bft)
10.06.2017 10:00 24,8 C 16,8 C 52 % 77 % 1020,5 hPa 0,0 l/m 1,5 km/h (1 Bft) W-SW 1,00 h 4,0 UV-I 657 W/m 12,7 C 16,8 C 3,3 km/h (1 Bft)
10.06.2017 11:00 24,9 C 16,8 C 52 % 72 % 1020,8 hPa 0,0 l/m 0,9 km/h (0 Bft) W 0,90 h 2,6 UV-I 321 W/m 11,6 C 16,7 C 2,3 km/h (1 Bft)
10.06.2017 12:00 24,8 C 17,6 C 51 % 69 % 1020,8 hPa 0,0 l/m 1,5 km/h (1 Bft) NW 1,00 h 3,6 UV-I 407 W/m 11,8 C 17,5 C 4,0 km/h (1 Bft)
10.06.2017 13:00 24,9 C 19,3 C 51 % 56 % 1020,7 hPa 0,0 l/m 6,1 km/h (2 Bft) W-NW 1,00 h 5,5 UV-I 596 W/m 10,2 C 18,8 C 11,9 km/h (2 Bft)
10.06.2017 14:00 24,9 C 20,0 C 51 % 51 % 1020,6 hPa 0,0 l/m 4,6 km/h (1 Bft) NW 0,90 h 4,9 UV-I 451 W/m 9,6 C 19,7 C 9,7 km/h (2 Bft)
10.06.2017 15:00 24,8 C 20,4 C 50 % 51 % 1020,5 hPa 0,0 l/m 3,0 km/h (1 Bft) W-NW 0,98 h 4,8 UV-I 628 W/m 9,9 C 20,3 C 6,5 km/h (2 Bft)
10.06.2017 16:00 24,6 C 20,9 C 48 % 46 % 1020,3 hPa 0,0 l/m 4,4 km/h (1 Bft) W 1,00 h 3,7 UV-I 605 W/m 8,8 C 20,7 C 9,2 km/h (2 Bft)
10.06.2017 17:00 24,5 C 20,6 C 47 % 45 % 1020,1 hPa 0,0 l/m 3,6 km/h (1 Bft) W-SW 1,00 h 2,2 UV-I 375 W/m 8,2 C 20,5 C 7,7 km/h (2 Bft)
10.06.2017 18:00 24,5 C 19,9 C 45 % 49 % 1020,3 hPa 0,0 l/m 3,2 km/h (1 Bft) W 0,83 h 1,2 UV-I 200 W/m 8,8 C 19,8 C 7,1 km/h (2 Bft)
10.06.2017 19:00 24,6 C 19,4 C 48 % 52 % 1020,3 hPa 0,0 l/m 1,5 km/h (1 Bft) NW 0,07 h 0,6 UV-I 101 W/m 9,4 C 19,4 C 3,9 km/h (1 Bft)
10.06.2017 20:00 24,8 C 18,5 C 49 % 55 % 1020,5 hPa 0,0 l/m 0,7 km/h (0 Bft) N 0,00 h 0,0 UV-I 29 W/m 9,3 C 18,5 C 1,6 km/h (1 Bft)
10.06.2017 21:00 24,9 C 17,1 C 50 % 62 % 1020,9 hPa 0,0 l/m 0,0 km/h (0 Bft) N 0,00 h 0,0 UV-I 8 W/m 9,9 C 17,1 C 0,0 km/h (0 Bft)
10.06.2017 22:00 25,1 C 15,8 C 51 % 72 % 1021,3 hPa 0,0 l/m 0,0 km/h (0 Bft) N 0,00 h 0,0 UV-I 0 W/m 10,9 C 15,8 C 0,0 km/h (0 Bft)
10.06.2017 23:00 25,1 C 15,0 C 51 % 78 % 1021,5 hPa 0,0 l/m 0,0 km/h (0 Bft) N 0,00 h 0,0 UV-I 0 W/m 11,2 C 15,0 C 0,0 km/h (0 Bft)
11.06.2017 00:00 24,9 C 13,9 C 51 % 84 % 1021,6 hPa 0,0 l/m 0,0 km/h (0 Bft) N 0,00 h 0,0 UV-I 0 W/m 11,2 C 13,9 C 0,0 km/h (0 Bft)
11.06.2017 01:00 24,7 C 12,7 C 50 % 87 % 1021,6 hPa 0,0 l/m 0,0 km/h (0 Bft) N 0,00 h 0,0 UV-I 0 W/m 10,7 C 12,7 C 0,0 km/h (0 Bft)
11.06.2017 02:00 24,6 C 11,4 C 50 % 91 % 1021,6 hPa 0,0 l/m 0,0 km/h (0 Bft) N 0,00 h 0,0 UV-I 0 W/m 10,1 C 11,4 C 0,0 km/h (0 Bft)
11.06.2017 03:00 24,5 C 10,5 C 50 % 93 % 1021,5 hPa 0,0 l/m 0,0 km/h (0 Bft) N 0,00 h 0,0 UV-I 0 W/m 9,5 C 10,5 C 0,0 km/h (0 Bft)
11.06.2017 04:00 24,5 C 9,7 C 50 % 94 % 1021,5 hPa 0,0 l/m 0,0 km/h (0 Bft) N 0,00 h 0,0 UV-I 0 W/m 8,8 C 9,7 C 0,0 km/h (0 Bft)
11.06.2017 05:00 24,3 C 9,1 C 50 % 95 % 1021,6 hPa 0,0 l/m 0,0 km/h (0 Bft) N 0,00 h 0,0 UV-I 9 W/m 8,3 C 9,1 C 0,0 km/h (0 Bft)
11.06.2017 06:00 24,3 C 10,0 C 49 % 93 % 1021,8 hPa 0,0 l/m 0,0 km/h (0 Bft) N 0,00 h 0,0 UV-I 19 W/m 8,9 C 10,0 C 0,0 km/h (0 Bft)
11.06.2017 07:00 24,2 C 13,5 C 49 % 82 % 1021,5 hPa 0,0 l/m 0,0 km/h (0 Bft) N 0,65 h 1,1 UV-I 233 W/m 10,5 C 13,5 C 0,0 km/h (0 Bft)
11.06.2017 08:00 24,4 C 17,4 C 50 % 69 % 1021,4 hPa 0,0 l/m 0,1 km/h (0 Bft) W-SW 1,00 h 2,1 UV-I 495 W/m 11,6 C 17,4 C 0,5 km/h (0 Bft)
11.06.2017 09:00 24,7 C 20,2 C 50 % 55 % 1021,2 hPa 0,0 l/m 1,5 km/h (1 Bft) W-SW 1,00 h 3,3 UV-I 645 W/m 11,0 C 20,2 C 4,0 km/h (1 Bft)
11.06.2017 10:00 24,7 C 22,0 C 49 % 49 % 1020,9 hPa 0,0 l/m 3,2 km/h (1 Bft) W-SW 1,00 h 5,3 UV-I 757 W/m 10,9 C 22,0 C 6,6 km/h (2 Bft)
11.06.2017 11:00 24,6 C 23,3 C 48 % 47 % 1020,4 hPa 0,0 l/m 2,5 km/h (1 Bft) SW 1,00 h 6,8 UV-I 847 W/m 11,3 C 23,2 C 5,9 km/h (2 Bft)
11.06.2017 12:00 24,5 C 24,2 C 48 % 45 % 1019,6 hPa 0,0 l/m 3,0 km/h (1 Bft) S-SO 1,00 h 7,8 UV-I 883 W/m 11,4 C 24,1 C 6,8 km/h (2 Bft)
11.06.2017 13:00 24,5 C 25,2 C 48 % 42 % 1018,9 hPa 0,0 l/m 4,1 km/h (1 Bft) W 1,00 h 7,9 UV-I 886 W/m 11,3 C 25,1 C 8,8 km/h (2 Bft)
11.06.2017 14:00 24,7 C 25,6 C 47 % 41 % 1018,1 hPa 0,0 l/m 4,4 km/h (1 Bft) W-SW 1,00 h 6,8 UV-I 790 W/m 11,3 C 25,5 C 9,3 km/h (2 Bft)
11.06.2017 15:00 25,0 C 26,0 C 48 % 41 % 1017,4 hPa 0,0 l/m 4,5 km/h (1 Bft) S 1,00 h 5,5 UV-I 686 W/m 11,7 C 25,9 C 8,3 km/h (2 Bft)
11.06.2017 16:00 25,3 C 26,3 C 45 % 40 % 1016,8 hPa 0,0 l/m 5,6 km/h (1 Bft) W-SW 1,00 h 4,3 UV-I 627 W/m 11,6 C 26,1 C 10,8 km/h (2 Bft)
11.06.2017 17:00 25,6 C 26,2 C 46 % 41 % 1016,1 hPa 0,0 l/m 2,9 km/h (1 Bft) W-SW 0,85 h 2,8 UV-I 409 W/m 11,7 C 26,2 C 7,1 km/h (2 Bft)
11.06.2017 18:00 25,4 C 25,6 C 47 % 44 % 1015,3 hPa 0,0 l/m 2,4 km/h (1 Bft) W-SW 0,00 h 0,0 UV-I 38 W/m 12,3 C 25,6 C 6,0 km/h (2 Bft)
11.06.2017 19:00 25,4 C 24,9 C 47 % 45 % 1014,6 hPa 0,0 l/m 2,1 km/h (1 Bft) S 0,00 h 0,0 UV-I 24 W/m 12,3 C 24,9 C 5,6 km/h (1 Bft)
11.06.2017 20:00 25,5 C 23,8 C 48 % 48 % 1014,3 hPa 0,0 l/m 0,3 km/h (0 Bft) S-SO 0,00 h 0,0 UV-I 12 W/m 12,0 C 23,8 C 1,1 km/h (1 Bft)
11.06.2017 21:00 25,6 C 22,0 C 48 % 53 % 1014,1 hPa 0,0 l/m 0,0 km/h (0 Bft) N 0,00 h 0,0 UV-I 5 W/m 12,1 C 22,0 C 0,0 km/h (0 Bft)
11.06.2017 22:00 25,6 C 20,5 C 49 % 58 % 1013,6 hPa 0,0 l/m 0,2 km/h (0 Bft) O-SO 0,00 h 0,0 UV-I 0 W/m 12,0 C 20,5 C 0,8 km/h (0 Bft)
11.06.2017 23:00 25,3 C 19,3 C 50 % 66 % 1013,5 hPa 0,0 l/m 0,1 km/h (0 Bft) O-NO 0,00 h 0,0 UV-I 0 W/m 12,6 C 19,3 C 0,4 km/h (0 Bft)
Min-Datum _ 08.06.17 05.06.17 09.06.17 09.06.17 06.06.17 - 05.06.17 - - - - 08.06.17 07.06.17 05.06.17
_ Min-Zeit 10:12 08:23 11:54 13:14 15:20 - 00:00 - - - - 05:52 06:59 00:00
Minimum _ 24,0 C 0,0 C 40 % 31 % 1003,5 hPa - 0,0 km/h (0 Bft) - - - - 4,9 C 3,1 C 0,0 km/h (0 Bft)
Max-Datum _ 05.06.17 11.06.17 05.06.17 05.06.17 08.06.17 09.06.17 07.06.17 - 09.06.17 11.06.17 07.06.17 06.06.17 11.06.17 07.06.17
_ Max-Zeit 10:33 15:38 02:26 07:08 07:13 23:32 14:44 - 08:41 13:20 13:04 10:25 15:38 14:45
Maximum _ 25,7 C 26,7 C 53 % 98 % 1022,0 hPa 1,8 l/m 27,4 km/h
SW (4 Bft)
- 0,07 h 8,1 UV-I 1187 W/m 15,4 C 26,7 C 48,3 km/h
SW (6 Bft)
Durchschnitt _ 24,8 C 15,1 C 49 % 74 % 1015,3 hPa #6,2 l/m 2,2 km/h (1 Bft) S #66:43 h 3,0 UV-I 320 W/m 9,9 C 14,9 C 4,0 km/h (1 Bft)